sensor_id;sensor_type;location;lat;lon;timestamp;P1;durP1;ratioP1;P2;durP2;ratioP2
74158;SDS011;62511;47.970;11.774;2023-03-31T00:01:32;10.38;;;4.60;;
74158;SDS011;62511;47.970;11.774;2023-03-31T00:03:58;17.08;;;6.80;;
74158;SDS011;62511;47.970;11.774;2023-03-31T00:06:30;9.82;;;4.97;;
74158;SDS011;62511;47.970;11.774;2023-03-31T00:09:02;7.03;;;4.15;;
74158;SDS011;62511;47.970;11.774;2023-03-31T00:11:28;12.30;;;5.53;;
74158;SDS011;62511;47.970;11.774;2023-03-31T00:13:54;11.60;;;6.15;;
74158;SDS011;62511;47.970;11.774;2023-03-31T00:16:20;9.27;;;6.13;;
74158;SDS011;62511;47.970;11.774;2023-03-31T00:18:46;9.63;;;4.90;;
74158;SDS011;62511;47.970;11.774;2023-03-31T00:21:16;11.30;;;6.05;;
74158;SDS011;62511;47.970;11.774;2023-03-31T00:24:01;6.68;;;4.10;;
74158;SDS011;62511;47.970;11.774;2023-03-31T00:26:28;17.98;;;8.63;;
74158;SDS011;62511;47.970;11.774;2023-03-31T00:28:54;13.93;;;7.35;;
74158;SDS011;62511;47.970;11.774;2023-03-31T00:31:21;11.90;;;5.75;;
74158;SDS011;62511;47.970;11.774;2023-03-31T00:33:47;11.93;;;4.45;;
74158;SDS011;62511;47.970;11.774;2023-03-31T00:36:13;9.50;;;5.28;;
74158;SDS011;62511;47.970;11.774;2023-03-31T00:38:45;12.82;;;4.90;;
74158;SDS011;62511;47.970;11.774;2023-03-31T00:41:12;9.88;;;5.35;;
74158;SDS011;62511;47.970;11.774;2023-03-31T00:43:38;7.93;;;4.95;;
74158;SDS011;62511;47.970;11.774;2023-03-31T00:46:17;13.05;;;6.32;;
74158;SDS011;62511;47.970;11.774;2023-03-31T00:48:49;9.35;;;4.72;;
74158;SDS011;62511;47.970;11.774;2023-03-31T00:51:15;11.00;;;4.50;;
74158;SDS011;62511;47.970;11.774;2023-03-31T00:53:43;12.90;;;4.57;;
74158;SDS011;62511;47.970;11.774;2023-03-31T00:56:12;8.10;;;4.95;;
74158;SDS011;62511;47.970;11.774;2023-03-31T00:58:39;10.02;;;5.05;;
74158;SDS011;62511;47.970;11.774;2023-03-31T01:01:07;11.80;;;5.95;;
74158;SDS011;62511;47.970;11.774;2023-03-31T01:03:35;9.82;;;5.15;;
74158;SDS011;62511;47.970;11.774;2023-03-31T01:06:03;8.70;;;4.82;;
74158;SDS011;62511;47.970;11.774;2023-03-31T01:08:31;7.57;;;4.82;;
74158;SDS011;62511;47.970;11.774;2023-03-31T01:11:01;11.30;;;5.07;;
74158;SDS011;62511;47.970;11.774;2023-03-31T01:13:28;9.20;;;5.88;;
74158;SDS011;62511;47.970;11.774;2023-03-31T01:15:54;9.30;;;4.72;;
74158;SDS011;62511;47.970;11.774;2023-03-31T01:18:21;9.30;;;4.40;;
74158;SDS011;62511;47.970;11.774;2023-03-31T01:41:55;10.10;;;5.10;;
74158;SDS011;62511;47.970;11.774;2023-03-31T01:47:30;10.02;;;4.70;;
74158;SDS011;62511;47.970;11.774;2023-03-31T01:52:25;7.90;;;4.18;;
74158;SDS011;62511;47.970;11.774;2023-03-31T01:54:54;8.82;;;4.25;;
74158;SDS011;62511;47.970;11.774;2023-03-31T01:57:30;6.35;;;3.80;;
74158;SDS011;62511;47.970;11.774;2023-03-31T02:00:08;8.95;;;4.57;;
74158;SDS011;62511;47.970;11.774;2023-03-31T02:02:38;9.63;;;4.72;;
74158;SDS011;62511;47.970;11.774;2023-03-31T02:05:07;8.63;;;4.93;;
74158;SDS011;62511;47.970;11.774;2023-03-31T02:07:45;6.53;;;4.38;;
74158;SDS011;62511;47.970;11.774;2023-03-31T02:10:14;7.20;;;3.75;;
74158;SDS011;62511;47.970;11.774;2023-03-31T02:12:41;8.55;;;4.28;;
74158;SDS011;62511;47.970;11.774;2023-03-31T02:15:09;7.93;;;4.55;;
74158;SDS011;62511;47.970;11.774;2023-03-31T02:17:36;9.35;;;4.50;;
74158;SDS011;62511;47.970;11.774;2023-03-31T02:20:06;9.23;;;4.90;;
74158;SDS011;62511;47.970;11.774;2023-03-31T02:22:36;7.22;;;4.07;;
74158;SDS011;62511;47.970;11.774;2023-03-31T02:25:03;7.95;;;4.10;;
74158;SDS011;62511;47.970;11.774;2023-03-31T02:27:32;9.82;;;4.03;;
74158;SDS011;62511;47.970;11.774;2023-03-31T02:29:59;6.05;;;4.07;;
74158;SDS011;62511;47.970;11.774;2023-03-31T02:32:46;7.78;;;4.43;;
74158;SDS011;62511;47.970;11.774;2023-03-31T02:35:14;9.73;;;5.65;;
74158;SDS011;62511;47.970;11.774;2023-03-31T02:37:40;9.48;;;5.40;;
74158;SDS011;62511;47.970;11.774;2023-03-31T02:40:09;8.82;;;4.90;;
74158;SDS011;62511;47.970;11.774;2023-03-31T02:42:36;8.57;;;5.03;;
74158;SDS011;62511;47.970;11.774;2023-03-31T02:45:03;9.02;;;5.03;;
74158;SDS011;62511;47.970;11.774;2023-03-31T02:47:30;6.10;;;3.55;;
74158;SDS011;62511;47.970;11.774;2023-03-31T02:49:57;5.95;;;3.35;;
74158;SDS011;62511;47.970;11.774;2023-03-31T02:55:36;5.00;;;3.45;;
74158;SDS011;62511;47.970;11.774;2023-03-31T03:01:26;8.27;;;3.50;;
74158;SDS011;62511;47.970;11.774;2023-03-31T03:03:37;5.90;;;3.15;;
74158;SDS011;62511;47.970;11.774;2023-03-31T03:11:26;6.47;;;3.42;;
74158;SDS011;62511;47.970;11.774;2023-03-31T03:14:02;5.78;;;3.90;;
74158;SDS011;62511;47.970;11.774;2023-03-31T03:16:35;7.70;;;3.72;;
74158;SDS011;62511;47.970;11.774;2023-03-31T03:19:03;8.05;;;3.88;;
74158;SDS011;62511;47.970;11.774;2023-03-31T03:21:30;7.28;;;4.07;;
74158;SDS011;62511;47.970;11.774;2023-03-31T03:23:56;8.77;;;3.45;;
74158;SDS011;62511;47.970;11.774;2023-03-31T03:26:23;7.75;;;3.72;;
74158;SDS011;62511;47.970;11.774;2023-03-31T03:28:52;5.28;;;3.60;;
74158;SDS011;62511;47.970;11.774;2023-03-31T03:31:38;8.63;;;3.78;;
74158;SDS011;62511;47.970;11.774;2023-03-31T03:34:04;4.93;;;3.75;;
74158;SDS011;62511;47.970;11.774;2023-03-31T03:36:31;9.10;;;3.38;;
74158;SDS011;62511;47.970;11.774;2023-03-31T03:38:57;5.78;;;3.33;;
74158;SDS011;62511;47.970;11.774;2023-03-31T03:41:23;6.20;;;3.35;;
74158;SDS011;62511;47.970;11.774;2023-03-31T03:43:49;9.45;;;3.80;;
74158;SDS011;62511;47.970;11.774;2023-03-31T03:46:15;10.85;;;3.33;;
74158;SDS011;62511;47.970;11.774;2023-03-31T03:48:41;9.45;;;3.10;;
74158;SDS011;62511;47.970;11.774;2023-03-31T03:51:07;6.35;;;3.60;;
74158;SDS011;62511;47.970;11.774;2023-03-31T03:53:33;6.93;;;2.65;;
74158;SDS011;62511;47.970;11.774;2023-03-31T03:55:59;5.30;;;2.58;;
74158;SDS011;62511;47.970;11.774;2023-03-31T03:58:25;6.72;;;3.40;;
74158;SDS011;62511;47.970;11.774;2023-03-31T04:00:51;4.43;;;2.83;;
74158;SDS011;62511;47.970;11.774;2023-03-31T04:03:17;8.15;;;2.90;;
74158;SDS011;62511;47.970;11.774;2023-03-31T04:05:43;5.50;;;2.58;;
74158;SDS011;62511;47.970;11.774;2023-03-31T04:08:09;6.30;;;3.22;;
74158;SDS011;62511;47.970;11.774;2023-03-31T04:10:35;7.95;;;3.30;;
74158;SDS011;62511;47.970;11.774;2023-03-31T04:13:01;5.10;;;3.05;;
74158;SDS011;62511;47.970;11.774;2023-03-31T04:15:27;7.57;;;2.75;;
74158;SDS011;62511;47.970;11.774;2023-03-31T04:17:53;5.90;;;2.72;;
74158;SDS011;62511;47.970;11.774;2023-03-31T04:20:22;3.90;;;2.75;;
74158;SDS011;62511;47.970;11.774;2023-03-31T04:22:51;7.95;;;4.30;;
74158;SDS011;62511;47.970;11.774;2023-03-31T04:25:18;6.45;;;2.67;;
74158;SDS011;62511;47.970;11.774;2023-03-31T04:27:47;7.78;;;3.25;;
74158;SDS011;62511;47.970;11.774;2023-03-31T04:30:20;4.97;;;3.25;;
74158;SDS011;62511;47.970;11.774;2023-03-31T04:32:55;8.52;;;2.78;;
74158;SDS011;62511;47.970;11.774;2023-03-31T04:35:22;8.15;;;4.20;;
74158;SDS011;62511;47.970;11.774;2023-03-31T04:37:49;6.82;;;3.67;;
74158;SDS011;62511;47.970;11.774;2023-03-31T04:40:16;7.18;;;3.30;;
74158;SDS011;62511;47.970;11.774;2023-03-31T04:42:43;5.13;;;3.03;;
74158;SDS011;62511;47.970;11.774;2023-03-31T04:45:11;6.03;;;3.13;;
74158;SDS011;62511;47.970;11.774;2023-03-31T04:47:37;6.45;;;3.60;;
74158;SDS011;62511;47.970;11.774;2023-03-31T04:50:03;8.65;;;3.55;;
74158;SDS011;62511;47.970;11.774;2023-03-31T04:52:29;8.57;;;3.50;;
74158;SDS011;62511;47.970;11.774;2023-03-31T04:54:56;6.55;;;3.33;;
74158;SDS011;62511;47.970;11.774;2023-03-31T04:57:24;5.97;;;3.22;;
74158;SDS011;62511;47.970;11.774;2023-03-31T04:59:50;6.35;;;3.40;;
74158;SDS011;62511;47.970;11.774;2023-03-31T05:02:16;6.43;;;3.80;;
74158;SDS011;62511;47.970;11.774;2023-03-31T05:04:47;7.53;;;4.88;;
74158;SDS011;62511;47.970;11.774;2023-03-31T05:07:13;6.97;;;4.30;;
74158;SDS011;62511;47.970;11.774;2023-03-31T05:09:39;8.95;;;4.70;;
74158;SDS011;62511;47.970;11.774;2023-03-31T05:12:05;12.30;;;5.15;;
74158;SDS011;62511;47.970;11.774;2023-03-31T05:14:32;8.27;;;4.45;;
74158;SDS011;62511;47.970;11.774;2023-03-31T05:16:58;8.07;;;3.42;;
74158;SDS011;62511;47.970;11.774;2023-03-31T05:19:25;9.02;;;3.70;;
74158;SDS011;62511;47.970;11.774;2023-03-31T05:21:52;6.18;;;3.85;;
74158;SDS011;62511;47.970;11.774;2023-03-31T05:24:18;7.78;;;4.00;;
74158;SDS011;62511;47.970;11.774;2023-03-31T05:26:45;7.57;;;3.78;;
74158;SDS011;62511;47.970;11.774;2023-03-31T05:29:16;9.25;;;4.05;;
74158;SDS011;62511;47.970;11.774;2023-03-31T05:31:42;11.10;;;5.22;;
74158;SDS011;62511;47.970;11.774;2023-03-31T05:34:08;7.82;;;4.57;;
74158;SDS011;62511;47.970;11.774;2023-03-31T05:36:34;8.23;;;3.97;;
74158;SDS011;62511;47.970;11.774;2023-03-31T05:39:01;9.30;;;3.58;;
74158;SDS011;62511;47.970;11.774;2023-03-31T05:41:28;8.82;;;4.38;;
74158;SDS011;62511;47.970;11.774;2023-03-31T05:43:54;6.32;;;3.38;;
74158;SDS011;62511;47.970;11.774;2023-03-31T05:46:20;5.38;;;3.47;;
74158;SDS011;62511;47.970;11.774;2023-03-31T05:48:46;7.18;;;3.83;;
74158;SDS011;62511;47.970;11.774;2023-03-31T05:51:12;8.13;;;3.35;;
74158;SDS011;62511;47.970;11.774;2023-03-31T05:53:38;6.85;;;4.38;;
74158;SDS011;62511;47.970;11.774;2023-03-31T05:56:04;8.95;;;3.78;;
74158;SDS011;62511;47.970;11.774;2023-03-31T05:58:34;6.82;;;3.78;;
74158;SDS011;62511;47.970;11.774;2023-03-31T06:03:36;7.25;;;4.15;;
74158;SDS011;62511;47.970;11.774;2023-03-31T06:06:02;5.95;;;3.78;;
74158;SDS011;62511;47.970;11.774;2023-03-31T06:08:32;6.97;;;3.50;;
74158;SDS011;62511;47.970;11.774;2023-03-31T06:10:58;9.57;;;3.92;;
74158;SDS011;62511;47.970;11.774;2023-03-31T06:13:24;6.68;;;3.55;;
74158;SDS011;62511;47.970;11.774;2023-03-31T06:15:54;9.15;;;4.13;;
74158;SDS011;62511;47.970;11.774;2023-03-31T06:18:21;6.95;;;3.92;;
74158;SDS011;62511;47.970;11.774;2023-03-31T06:20:47;7.97;;;3.97;;
74158;SDS011;62511;47.970;11.774;2023-03-31T06:23:13;6.63;;;3.38;;
74158;SDS011;62511;47.970;11.774;2023-03-31T06:25:39;8.48;;;3.83;;
74158;SDS011;62511;47.970;11.774;2023-03-31T06:28:07;6.45;;;3.72;;
74158;SDS011;62511;47.970;11.774;2023-03-31T06:30:33;8.23;;;3.53;;
74158;SDS011;62511;47.970;11.774;2023-03-31T06:33:00;8.18;;;3.92;;
74158;SDS011;62511;47.970;11.774;2023-03-31T06:35:27;6.15;;;3.45;;
74158;SDS011;62511;47.970;11.774;2023-03-31T06:37:53;6.60;;;3.75;;
74158;SDS011;62511;47.970;11.774;2023-03-31T06:40:21;8.07;;;3.10;;
74158;SDS011;62511;47.970;11.774;2023-03-31T06:42:46;7.47;;;4.30;;
74158;SDS011;62511;47.970;11.774;2023-03-31T06:45:12;7.53;;;3.50;;
74158;SDS011;62511;47.970;11.774;2023-03-31T06:47:42;8.02;;;3.58;;
74158;SDS011;62511;47.970;11.774;2023-03-31T06:50:10;7.45;;;3.92;;
74158;SDS011;62511;47.970;11.774;2023-03-31T06:52:36;6.90;;;3.20;;
74158;SDS011;62511;47.970;11.774;2023-03-31T06:55:02;5.03;;;3.30;;
74158;SDS011;62511;47.970;11.774;2023-03-31T06:57:28;6.45;;;3.63;;
74158;SDS011;62511;47.970;11.774;2023-03-31T06:59:57;8.90;;;3.38;;
74158;SDS011;62511;47.970;11.774;2023-03-31T07:02:23;6.80;;;3.10;;
74158;SDS011;62511;47.970;11.774;2023-03-31T07:04:49;5.05;;;2.80;;
74158;SDS011;62511;47.970;11.774;2023-03-31T07:07:15;5.70;;;3.05;;
74158;SDS011;62511;47.970;11.774;2023-03-31T07:09:41;4.90;;;2.88;;
74158;SDS011;62511;47.970;11.774;2023-03-31T07:12:07;5.32;;;3.05;;
74158;SDS011;62511;47.970;11.774;2023-03-31T07:14:34;4.95;;;3.10;;
74158;SDS011;62511;47.970;11.774;2023-03-31T07:17:00;4.60;;;2.75;;
74158;SDS011;62511;47.970;11.774;2023-03-31T07:19:26;6.15;;;2.95;;
74158;SDS011;62511;47.970;11.774;2023-03-31T07:21:53;8.32;;;3.25;;
74158;SDS011;62511;47.970;11.774;2023-03-31T07:24:21;6.40;;;2.72;;
74158;SDS011;62511;47.970;11.774;2023-03-31T07:26:47;7.05;;;3.53;;
74158;SDS011;62511;47.970;11.774;2023-03-31T07:29:13;8.57;;;3.90;;
74158;SDS011;62511;47.970;11.774;2023-03-31T07:31:39;7.05;;;3.65;;
74158;SDS011;62511;47.970;11.774;2023-03-31T07:34:05;6.38;;;4.22;;
74158;SDS011;62511;47.970;11.774;2023-03-31T07:36:31;8.75;;;4.55;;
74158;SDS011;62511;47.970;11.774;2023-03-31T07:38:57;7.95;;;4.15;;
74158;SDS011;62511;47.970;11.774;2023-03-31T07:41:23;5.70;;;3.10;;
74158;SDS011;62511;47.970;11.774;2023-03-31T07:43:50;6.32;;;3.22;;
74158;SDS011;62511;47.970;11.774;2023-03-31T07:46:17;9.80;;;4.35;;
74158;SDS011;62511;47.970;11.774;2023-03-31T07:51:10;5.50;;;3.75;;
74158;SDS011;62511;47.970;11.774;2023-03-31T07:53:36;9.82;;;4.30;;
74158;SDS011;62511;47.970;11.774;2023-03-31T07:56:02;7.97;;;4.63;;
74158;SDS011;62511;47.970;11.774;2023-03-31T07:58:28;10.88;;;4.88;;
74158;SDS011;62511;47.970;11.774;2023-03-31T08:00:54;8.38;;;3.78;;
74158;SDS011;62511;47.970;11.774;2023-03-31T08:03:20;8.13;;;4.60;;
74158;SDS011;62511;47.970;11.774;2023-03-31T08:05:50;5.75;;;4.22;;
74158;SDS011;62511;47.970;11.774;2023-03-31T08:08:17;7.88;;;3.78;;
74158;SDS011;62511;47.970;11.774;2023-03-31T08:10:43;10.40;;;4.20;;
74158;SDS011;62511;47.970;11.774;2023-03-31T08:13:09;9.52;;;4.57;;
74158;SDS011;62511;47.970;11.774;2023-03-31T08:15:40;6.70;;;3.67;;
74158;SDS011;62511;47.970;11.774;2023-03-31T08:18:06;8.35;;;4.47;;
74158;SDS011;62511;47.970;11.774;2023-03-31T08:20:32;7.53;;;4.35;;
74158;SDS011;62511;47.970;11.774;2023-03-31T08:22:58;6.72;;;4.53;;
74158;SDS011;62511;47.970;11.774;2023-03-31T08:25:25;7.80;;;4.50;;
74158;SDS011;62511;47.970;11.774;2023-03-31T08:27:51;8.82;;;4.72;;
74158;SDS011;62511;47.970;11.774;2023-03-31T08:30:17;10.07;;;5.30;;
74158;SDS011;62511;47.970;11.774;2023-03-31T08:32:44;7.50;;;4.68;;
74158;SDS011;62511;47.970;11.774;2023-03-31T08:35:10;5.95;;;3.40;;
74158;SDS011;62511;47.970;11.774;2023-03-31T08:37:36;7.60;;;4.03;;
74158;SDS011;62511;47.970;11.774;2023-03-31T08:40:06;6.75;;;3.47;;
74158;SDS011;62511;47.970;11.774;2023-03-31T08:42:43;6.80;;;3.55;;
74158;SDS011;62511;47.970;11.774;2023-03-31T08:45:25;7.80;;;4.03;;
74158;SDS011;62511;47.970;11.774;2023-03-31T08:48:38;7.97;;;4.20;;
74158;SDS011;62511;47.970;11.774;2023-03-31T08:50:39;7.35;;;3.97;;
74158;SDS011;62511;47.970;11.774;2023-03-31T08:55:53;7.30;;;4.03;;
74158;SDS011;62511;47.970;11.774;2023-03-31T09:00:58;6.57;;;3.65;;
74158;SDS011;62511;47.970;11.774;2023-03-31T09:06:02;5.32;;;3.35;;
74158;SDS011;62511;47.970;11.774;2023-03-31T09:10:59;7.07;;;3.67;;
74158;SDS011;62511;47.970;11.774;2023-03-31T09:16:07;6.15;;;2.88;;
74158;SDS011;62511;47.970;11.774;2023-03-31T09:18:34;5.47;;;2.60;;
74158;SDS011;62511;47.970;11.774;2023-03-31T09:21:24;7.60;;;3.17;;
74158;SDS011;62511;47.970;11.774;2023-03-31T09:23:48;4.95;;;2.85;;
74158;SDS011;62511;47.970;11.774;2023-03-31T09:26:19;5.05;;;2.90;;
74158;SDS011;62511;47.970;11.774;2023-03-31T09:28:47;4.90;;;2.70;;
74158;SDS011;62511;47.970;11.774;2023-03-31T09:31:15;4.55;;;2.70;;
74158;SDS011;62511;47.970;11.774;2023-03-31T09:33:43;2.90;;;2.38;;
74158;SDS011;62511;47.970;11.774;2023-03-31T09:36:13;4.30;;;2.50;;
74158;SDS011;62511;47.970;11.774;2023-03-31T09:38:40;3.40;;;2.03;;
74158;SDS011;62511;47.970;11.774;2023-03-31T09:41:07;2.47;;;1.88;;
74158;SDS011;62511;47.970;11.774;2023-03-31T09:43:33;4.47;;;2.40;;
74158;SDS011;62511;47.970;11.774;2023-03-31T09:45:59;4.80;;;2.88;;
74158;SDS011;62511;47.970;11.774;2023-03-31T09:48:27;7.10;;;2.15;;
74158;SDS011;62511;47.970;11.774;2023-03-31T09:50:57;3.75;;;2.17;;
74158;SDS011;62511;47.970;11.774;2023-03-31T09:53:37;4.85;;;2.60;;
74158;SDS011;62511;47.970;11.774;2023-03-31T09:56:06;2.80;;;2.10;;
74158;SDS011;62511;47.970;11.774;2023-03-31T09:58:42;2.85;;;1.88;;
74158;SDS011;62511;47.970;11.774;2023-03-31T10:01:10;3.83;;;1.85;;
74158;SDS011;62511;47.970;11.774;2023-03-31T10:03:50;2.47;;;1.75;;
74158;SDS011;62511;47.970;11.774;2023-03-31T10:06:17;3.15;;;2.05;;
74158;SDS011;62511;47.970;11.774;2023-03-31T10:08:56;3.20;;;1.92;;
74158;SDS011;62511;47.970;11.774;2023-03-31T10:11:24;5.93;;;2.20;;
74158;SDS011;62511;47.970;11.774;2023-03-31T10:13:58;2.47;;;1.75;;
74158;SDS011;62511;47.970;11.774;2023-03-31T10:16:29;3.38;;;1.83;;
74158;SDS011;62511;47.970;11.774;2023-03-31T10:19:10;4.25;;;2.03;;
74158;SDS011;62511;47.970;11.774;2023-03-31T10:21:36;3.85;;;2.35;;
74158;SDS011;62511;47.970;11.774;2023-03-31T10:24:07;4.75;;;1.80;;
74158;SDS011;62511;47.970;11.774;2023-03-31T10:26:33;3.88;;;2.30;;
74158;SDS011;62511;47.970;11.774;2023-03-31T10:29:00;2.78;;;1.77;;
74158;SDS011;62511;47.970;11.774;2023-03-31T10:31:33;6.13;;;2.28;;
74158;SDS011;62511;47.970;11.774;2023-03-31T10:36:27;5.10;;;2.15;;
74158;SDS011;62511;47.970;11.774;2023-03-31T10:38:55;3.70;;;2.03;;
74158;SDS011;62511;47.970;11.774;2023-03-31T10:41:25;4.68;;;2.03;;
74158;SDS011;62511;47.970;11.774;2023-03-31T10:43:53;4.30;;;1.75;;
74158;SDS011;62511;47.970;11.774;2023-03-31T10:46:19;2.88;;;1.98;;
74158;SDS011;62511;47.970;11.774;2023-03-31T10:48:46;2.85;;;1.55;;
74158;SDS011;62511;47.970;11.774;2023-03-31T10:53:42;3.80;;;2.40;;
74158;SDS011;62511;47.970;11.774;2023-03-31T10:56:14;3.80;;;2.17;;
74158;SDS011;62511;47.970;11.774;2023-03-31T11:04:18;3.80;;;2.58;;
74158;SDS011;62511;47.970;11.774;2023-03-31T11:06:56;5.60;;;3.08;;
74158;SDS011;62511;47.970;11.774;2023-03-31T11:12:04;5.47;;;3.05;;
74158;SDS011;62511;47.970;11.774;2023-03-31T11:17:34;6.07;;;3.50;;
74158;SDS011;62511;47.970;11.774;2023-03-31T11:22:36;6.25;;;2.38;;
74158;SDS011;62511;47.970;11.774;2023-03-31T11:43:06;1.67;;;1.17;;
74158;SDS011;62511;47.970;11.774;2023-03-31T11:45:43;3.00;;;1.23;;
74158;SDS011;62511;47.970;11.774;2023-03-31T11:48:16;1.35;;;0.68;;
74158;SDS011;62511;47.970;11.774;2023-03-31T11:50:44;0.68;;;0.68;;
74158;SDS011;62511;47.970;11.774;2023-03-31T11:53:19;2.53;;;1.40;;
74158;SDS011;62511;47.970;11.774;2023-03-31T11:55:49;1.23;;;1.10;;
74158;SDS011;62511;47.970;11.774;2023-03-31T11:58:20;3.30;;;1.33;;
74158;SDS011;62511;47.970;11.774;2023-03-31T12:03:24;2.47;;;1.80;;
74158;SDS011;62511;47.970;11.774;2023-03-31T12:06:00;2.45;;;1.20;;
74158;SDS011;62511;47.970;11.774;2023-03-31T12:11:23;2.25;;;1.77;;
74158;SDS011;62511;47.970;11.774;2023-03-31T12:14:09;3.15;;;1.70;;
74158;SDS011;62511;47.970;11.774;2023-03-31T12:16:47;2.55;;;1.45;;
74158;SDS011;62511;47.970;11.774;2023-03-31T12:21:43;3.13;;;1.80;;
74158;SDS011;62511;47.970;11.774;2023-03-31T12:24:11;2.63;;;1.70;;
74158;SDS011;62511;47.970;11.774;2023-03-31T12:26:53;4.18;;;1.70;;
74158;SDS011;62511;47.970;11.774;2023-03-31T12:29:24;2.33;;;1.60;;
74158;SDS011;62511;47.970;11.774;2023-03-31T12:31:53;4.05;;;1.63;;
74158;SDS011;62511;47.970;11.774;2023-03-31T12:34:20;3.00;;;1.58;;
74158;SDS011;62511;47.970;11.774;2023-03-31T12:37:07;4.80;;;2.45;;
74158;SDS011;62511;47.970;11.774;2023-03-31T12:39:40;7.35;;;4.40;;
74158;SDS011;62511;47.970;11.774;2023-03-31T12:53:03;19.08;;;9.50;;
74158;SDS011;62511;47.970;11.774;2023-03-31T12:55:31;6.43;;;4.07;;
74158;SDS011;62511;47.970;11.774;2023-03-31T13:06:01;5.47;;;3.28;;
74158;SDS011;62511;47.970;11.774;2023-03-31T13:09:13;5.43;;;3.35;;
74158;SDS011;62511;47.970;11.774;2023-03-31T13:11:17;2.67;;;1.65;;
74158;SDS011;62511;47.970;11.774;2023-03-31T13:16:10;2.50;;;1.45;;
74158;SDS011;62511;47.970;11.774;2023-03-31T13:18:35;1.27;;;0.90;;
74158;SDS011;62511;47.970;11.774;2023-03-31T13:21:07;1.92;;;1.05;;
74158;SDS011;62511;47.970;11.774;2023-03-31T13:23:34;0.95;;;0.47;;
74158;SDS011;62511;47.970;11.774;2023-03-31T13:26:01;2.95;;;0.70;;
74158;SDS011;62511;47.970;11.774;2023-03-31T13:28:31;0.73;;;0.60;;
74158;SDS011;62511;47.970;11.774;2023-03-31T13:39:02;0.60;;;0.60;;
74158;SDS011;62511;47.970;11.774;2023-03-31T13:41:33;1.02;;;0.52;;
74158;SDS011;62511;47.970;11.774;2023-03-31T13:46:58;1.58;;;0.63;;
74158;SDS011;62511;47.970;11.774;2023-03-31T13:52:09;2.28;;;0.65;;
74158;SDS011;62511;47.970;11.774;2023-03-31T14:08:04;5.45;;;2.47;;
74158;SDS011;62511;47.970;11.774;2023-03-31T14:10:37;3.22;;;1.40;;
74158;SDS011;62511;47.970;11.774;2023-03-31T14:13:05;4.55;;;2.55;;
74158;SDS011;62511;47.970;11.774;2023-03-31T14:15:35;4.40;;;1.42;;
74158;SDS011;62511;47.970;11.774;2023-03-31T14:18:02;1.63;;;0.73;;
74158;SDS011;62511;47.970;11.774;2023-03-31T14:20:37;2.22;;;1.20;;
74158;SDS011;62511;47.970;11.774;2023-03-31T14:28:19;4.35;;;1.65;;
74158;SDS011;62511;47.970;11.774;2023-03-31T14:30:52;3.25;;;1.85;;
74158;SDS011;62511;47.970;11.774;2023-03-31T14:38:36;4.00;;;1.10;;
74158;SDS011;62511;47.970;11.774;2023-03-31T14:41:02;4.55;;;1.02;;
74158;SDS011;62511;47.970;11.774;2023-03-31T14:43:29;2.13;;;1.02;;
74158;SDS011;62511;47.970;11.774;2023-03-31T14:46:07;2.13;;;0.88;;
74158;SDS011;62511;47.970;11.774;2023-03-31T14:48:38;1.02;;;0.88;;
74158;SDS011;62511;47.970;11.774;2023-03-31T14:51:09;0.70;;;0.50;;
74158;SDS011;62511;47.970;11.774;2023-03-31T14:53:35;0.93;;;0.60;;
74158;SDS011;62511;47.970;11.774;2023-03-31T14:56:03;1.58;;;0.52;;
74158;SDS011;62511;47.970;11.774;2023-03-31T14:58:31;1.63;;;0.30;;
74158;SDS011;62511;47.970;11.774;2023-03-31T15:00:58;0.50;;;0.30;;
74158;SDS011;62511;47.970;11.774;2023-03-31T15:03:25;0.95;;;0.40;;
74158;SDS011;62511;47.970;11.774;2023-03-31T15:05:54;0.30;;;0.30;;
74158;SDS011;62511;47.970;11.774;2023-03-31T15:08:21;0.38;;;0.22;;
74158;SDS011;62511;47.970;11.774;2023-03-31T15:10:49;0.32;;;0.22;;
74158;SDS011;62511;47.970;11.774;2023-03-31T15:13:18;0.13;;;0.13;;
74158;SDS011;62511;47.970;11.774;2023-03-31T15:15:44;0.50;;;0.30;;
74158;SDS011;62511;47.970;11.774;2023-03-31T15:18:14;0.43;;;0.43;;
74158;SDS011;62511;47.970;11.774;2023-03-31T15:20:41;0.43;;;0.30;;
74158;SDS011;62511;47.970;11.774;2023-03-31T15:23:18;0.30;;;0.20;;
74158;SDS011;62511;47.970;11.774;2023-03-31T15:25:58;0.30;;;0.30;;
74158;SDS011;62511;47.970;11.774;2023-03-31T15:28:30;0.20;;;0.20;;
74158;SDS011;62511;47.970;11.774;2023-03-31T15:30:59;0.55;;;0.40;;
74158;SDS011;62511;47.970;11.774;2023-03-31T15:33:33;0.40;;;0.20;;
74158;SDS011;62511;47.970;11.774;2023-03-31T15:36:00;0.82;;;0.55;;
74158;SDS011;62511;47.970;11.774;2023-03-31T15:38:27;2.65;;;0.60;;
74158;SDS011;62511;47.970;11.774;2023-03-31T15:40:55;0.95;;;0.80;;
74158;SDS011;62511;47.970;11.774;2023-03-31T15:43:29;1.25;;;1.10;;
74158;SDS011;62511;47.970;11.774;2023-03-31T15:45:59;2.38;;;0.52;;
74158;SDS011;62511;47.970;11.774;2023-03-31T15:48:36;0.30;;;0.30;;
74158;SDS011;62511;47.970;11.774;2023-03-31T15:53:47;0.30;;;0.30;;
74158;SDS011;62511;47.970;11.774;2023-03-31T15:58:57;0.30;;;0.22;;
74158;SDS011;62511;47.970;11.774;2023-03-31T16:01:26;0.93;;;0.20;;
74158;SDS011;62511;47.970;11.774;2023-03-31T16:03:54;1.67;;;0.60;;
74158;SDS011;62511;47.970;11.774;2023-03-31T16:07:06;0.70;;;0.43;;
74158;SDS011;62511;47.970;11.774;2023-03-31T16:09:08;0.45;;;0.45;;
74158;SDS011;62511;47.970;11.774;2023-03-31T16:14:01;0.82;;;0.55;;
74158;SDS011;62511;47.970;11.774;2023-03-31T16:16:31;3.40;;;0.55;;
74158;SDS011;62511;47.970;11.774;2023-03-31T16:19:04;0.40;;;0.40;;
74158;SDS011;62511;47.970;11.774;2023-03-31T16:21:35;0.68;;;0.40;;
74158;SDS011;62511;47.970;11.774;2023-03-31T16:24:02;0.73;;;0.50;;
74158;SDS011;62511;47.970;11.774;2023-03-31T16:26:29;0.70;;;0.60;;
74158;SDS011;62511;47.970;11.774;2023-03-31T16:28:55;1.50;;;0.40;;
74158;SDS011;62511;47.970;11.774;2023-03-31T16:33:54;1.33;;;0.80;;
74158;SDS011;62511;47.970;11.774;2023-03-31T16:36:21;1.58;;;0.75;;
74158;SDS011;62511;47.970;11.774;2023-03-31T16:38:50;0.93;;;0.75;;
74158;SDS011;62511;47.970;11.774;2023-03-31T16:41:20;1.25;;;0.60;;
74158;SDS011;62511;47.970;11.774;2023-03-31T16:43:47;1.05;;;0.52;;
74158;SDS011;62511;47.970;11.774;2023-03-31T16:46:16;0.90;;;0.68;;
74158;SDS011;62511;47.970;11.774;2023-03-31T16:48:42;1.35;;;0.55;;
74158;SDS011;62511;47.970;11.774;2023-03-31T16:51:08;0.68;;;0.52;;
74158;SDS011;62511;47.970;11.774;2023-03-31T16:53:35;0.82;;;0.60;;
74158;SDS011;62511;47.970;11.774;2023-03-31T16:56:02;1.23;;;0.77;;
74158;SDS011;62511;47.970;11.774;2023-03-31T16:58:29;1.15;;;0.80;;
74158;SDS011;62511;47.970;11.774;2023-03-31T17:00:55;1.98;;;0.57;;
74158;SDS011;62511;47.970;11.774;2023-03-31T17:03:22;0.68;;;0.60;;
74158;SDS011;62511;47.970;11.774;2023-03-31T17:05:49;1.42;;;0.80;;
74158;SDS011;62511;47.970;11.774;2023-03-31T17:08:17;3.28;;;1.48;;
74158;SDS011;62511;47.970;11.774;2023-03-31T17:10:49;1.17;;;0.70;;
74158;SDS011;62511;47.970;11.774;2023-03-31T17:13:15;0.45;;;0.30;;
74158;SDS011;62511;47.970;11.774;2023-03-31T17:15:41;0.75;;;0.30;;
74158;SDS011;62511;47.970;11.774;2023-03-31T17:18:07;0.20;;;0.20;;
74158;SDS011;62511;47.970;11.774;2023-03-31T17:20:33;0.22;;;0.20;;
74158;SDS011;62511;47.970;11.774;2023-03-31T17:23:00;0.65;;;0.28;;
74158;SDS011;62511;47.970;11.774;2023-03-31T17:25:27;0.30;;;0.10;;
74158;SDS011;62511;47.970;11.774;2023-03-31T17:27:53;0.20;;;0.20;;
74158;SDS011;62511;47.970;11.774;2023-03-31T17:30:24;0.38;;;0.20;;
74158;SDS011;62511;47.970;11.774;2023-03-31T17:32:51;0.25;;;0.25;;